createdAt,value
2019-02-24T00:00:04.255Z,10.87
2019-02-24T00:02:33.401Z,10.86
2019-02-24T00:05:02.467Z,10.86
2019-02-24T00:07:31.555Z,10.84
2019-02-24T00:10:00.623Z,10.83
2019-02-24T00:12:29.740Z,10.81
2019-02-24T00:14:58.825Z,10.83
2019-02-24T00:17:28.024Z,10.83
2019-02-24T00:19:57.074Z,10.81
2019-02-24T00:22:26.176Z,10.80
2019-02-24T00:24:55.287Z,10.80
2019-02-24T00:27:24.434Z,10.82
2019-02-24T00:29:53.483Z,10.81
2019-02-24T00:32:22.577Z,10.80
2019-02-24T00:34:51.658Z,10.79
2019-02-24T00:37:20.746Z,10.79
2019-02-24T00:39:49.971Z,10.80
2019-02-24T00:42:19.105Z,10.80
2019-02-24T00:44:48.181Z,10.79
2019-02-24T00:47:17.358Z,10.82
2019-02-24T00:49:46.448Z,10.79
2019-02-24T00:52:15.506Z,10.78
2019-02-24T00:54:44.579Z,10.79
2019-02-24T00:57:13.706Z,10.77
2019-02-24T00:59:42.802Z,10.77
2019-02-24T01:02:11.917Z,10.78
2019-02-24T01:04:40.972Z,10.76
2019-02-24T01:07:10.029Z,10.73
2019-02-24T01:09:39.506Z,10.42
2019-02-24T01:12:08.552Z,10.72
2019-02-24T01:14:37.654Z,10.70
2019-02-24T01:17:06.718Z,10.63
2019-02-24T01:19:35.791Z,10.65
2019-02-24T01:22:04.895Z,10.67
2019-02-24T01:24:33.939Z,10.66
2019-02-24T01:27:03.044Z,10.68
2019-02-24T01:29:32.114Z,10.68
2019-02-24T01:32:01.179Z,10.65
2019-02-24T01:34:30.275Z,10.61
2019-02-24T01:36:59.350Z,10.64
2019-02-24T01:39:28.399Z,10.59
2019-02-24T01:41:57.457Z,10.59
2019-02-24T01:44:26.582Z,10.58
2019-02-24T01:46:55.644Z,10.55
2019-02-24T01:49:24.717Z,10.57
2019-02-24T01:51:53.787Z,10.59
2019-02-24T01:54:22.841Z,10.60
2019-02-24T01:56:51.869Z,10.58
2019-02-24T01:59:20.937Z,10.56
2019-02-24T02:01:49.978Z,10.58
2019-02-24T02:04:19.028Z,10.58
2019-02-24T02:06:48.097Z,10.58
2019-02-24T02:09:17.248Z,10.55
2019-02-24T02:11:46.309Z,10.53
2019-02-24T02:14:15.364Z,10.53
2019-02-24T02:16:44.418Z,10.54
2019-02-24T02:19:13.454Z,10.54
2019-02-24T02:21:42.500Z,10.51
2019-02-24T02:24:11.582Z,10.51
2019-02-24T02:26:40.631Z,10.48
2019-02-24T02:29:09.709Z,10.46
2019-02-24T02:31:38.761Z,10.49
2019-02-24T02:34:07.811Z,10.51
2019-02-24T02:36:36.876Z,10.53
2019-02-24T02:39:06.013Z,10.53
2019-02-24T02:41:35.060Z,10.52
2019-02-24T02:44:04.171Z,10.52
2019-02-24T02:46:33.225Z,10.52
2019-02-24T02:49:04.448Z,10.53
2019-02-24T02:51:33.112Z,10.53
2019-02-24T02:54:02.244Z,10.51
2019-02-24T02:56:31.261Z,10.44
2019-02-24T02:59:00.383Z,10.47
2019-02-24T03:01:29.455Z,10.46
2019-02-24T03:03:58.547Z,10.46
2019-02-24T03:06:41.412Z,10.42
2019-02-24T03:09:12.254Z,10.39
2019-02-24T03:11:41.281Z,10.35
2019-02-24T03:14:10.393Z,10.32
2019-02-24T03:16:39.468Z,10.30
2019-02-24T03:19:08.572Z,10.27
2019-02-24T03:21:37.691Z,10.27
2019-02-24T03:24:06.814Z,10.24
2019-02-24T03:26:35.925Z,10.22
2019-02-24T03:29:05.030Z,10.16
2019-02-24T03:31:34.156Z,10.16
2019-02-24T03:34:03.265Z,10.16
2019-02-24T03:36:32.329Z,10.16
2019-02-24T03:39:01.427Z,10.18
2019-02-24T03:41:30.560Z,10.17
2019-02-24T03:43:59.711Z,10.19
2019-02-24T03:46:28.781Z,10.22
2019-02-24T03:48:57.963Z,10.22
2019-02-24T03:51:27.019Z,10.19
2019-02-24T03:53:56.105Z,10.20
2019-02-24T03:56:25.203Z,10.17
2019-02-24T03:58:54.358Z,10.15
2019-02-24T04:01:23.404Z,10.10
2019-02-24T04:03:52.548Z,10.09
2019-02-24T04:06:21.612Z,10.07
2019-02-24T04:08:50.693Z,10.06
2019-02-24T04:11:19.797Z,10.02
2019-02-24T04:13:48.947Z,10.03
2019-02-24T04:16:18.038Z,10.03
2019-02-24T04:18:47.084Z,10.03
2019-02-24T04:21:16.137Z,10.01
2019-02-24T04:23:45.279Z,9.99
2019-02-24T04:26:14.390Z,9.98
2019-02-24T04:28:43.490Z,9.97
2019-02-24T04:31:12.532Z,9.97
2019-02-24T04:33:41.604Z,9.94
2019-02-24T04:36:10.775Z,9.93
2019-02-24T04:38:39.841Z,9.91
2019-02-24T04:41:08.976Z,9.90
2019-02-24T04:43:38.108Z,9.92
2019-02-24T04:46:07.210Z,9.91
2019-02-24T04:48:36.457Z,9.90
2019-02-24T04:51:05.526Z,9.87
2019-02-24T04:53:34.618Z,9.84
2019-02-24T04:56:03.736Z,9.81
2019-02-24T04:58:32.863Z,9.79
2019-02-24T05:01:01.952Z,9.76
2019-02-24T05:03:31.036Z,9.75
2019-02-24T05:06:00.099Z,9.73
2019-02-24T05:08:29.247Z,9.73
2019-02-24T05:10:58.373Z,9.72
2019-02-24T05:13:27.428Z,9.71
2019-02-24T05:15:56.551Z,9.68
2019-02-24T05:18:25.639Z,9.66
2019-02-24T05:20:54.797Z,9.59
2019-02-24T05:23:23.907Z,9.58
2019-02-24T05:25:52.989Z,9.56
2019-02-24T05:28:22.073Z,9.52
2019-02-24T05:30:51.201Z,9.50
2019-02-24T05:33:20.299Z,9.47
2019-02-24T05:35:49.568Z,9.45
2019-02-24T05:38:18.694Z,9.41
2019-02-24T05:40:47.837Z,9.40
2019-02-24T05:43:16.974Z,9.37
2019-02-24T05:45:46.063Z,9.34
2019-02-24T05:48:15.095Z,9.33
2019-02-24T05:50:44.260Z,9.28
2019-02-24T05:53:13.331Z,9.26
2019-02-24T05:55:42.463Z,9.26
2019-02-24T05:58:11.523Z,9.24
2019-02-24T06:00:40.662Z,9.21
2019-02-24T06:03:09.788Z,9.19
2019-02-24T06:05:38.942Z,9.14
2019-02-24T06:08:07.991Z,9.11
2019-02-24T06:10:37.053Z,9.08
2019-02-24T06:13:06.096Z,9.06
2019-02-24T06:15:35.196Z,9.01
2019-02-24T06:18:04.246Z,9.00
2019-02-24T06:20:33.419Z,8.98
2019-02-24T06:23:02.607Z,8.96
2019-02-24T06:25:31.798Z,8.91
2019-02-24T06:28:00.924Z,8.88
2019-02-24T06:30:30.041Z,8.86
2019-02-24T06:32:59.179Z,8.85
2019-02-24T06:35:28.333Z,8.86
2019-02-24T06:37:57.462Z,8.86
2019-02-24T06:40:26.680Z,8.87
2019-02-24T06:42:55.765Z,8.86
2019-02-24T06:45:24.905Z,8.86
2019-02-24T06:47:54.134Z,8.88
2019-02-24T06:50:23.322Z,8.86
2019-02-24T06:52:52.400Z,8.88
2019-02-24T06:55:21.540Z,8.90
2019-02-24T06:57:50.623Z,8.92
2019-02-24T07:00:19.691Z,8.98
2019-02-24T07:02:48.826Z,8.98
2019-02-24T07:05:17.925Z,9.03
2019-02-24T07:07:47.055Z,9.06
2019-02-24T07:10:16.114Z,9.19
2019-02-24T07:12:45.257Z,9.57
2019-02-24T07:15:14.370Z,10.25
2019-02-24T07:17:43.497Z,10.99
2019-02-24T07:20:12.689Z,11.72
2019-02-24T07:22:41.853Z,12.41
2019-02-24T07:25:10.991Z,13.07
2019-02-24T07:27:40.144Z,13.65
2019-02-24T07:30:09.552Z,14.20
2019-02-24T07:32:38.678Z,14.74
2019-02-24T07:35:07.839Z,15.35
2019-02-24T07:37:36.979Z,15.89
2019-02-24T07:40:06.089Z,16.42
2019-02-24T07:42:35.208Z,16.84
2019-02-24T07:45:04.385Z,17.24
2019-02-24T07:47:33.454Z,17.61
2019-02-24T07:50:02.534Z,17.79
2019-02-24T07:52:31.626Z,17.91
2019-02-24T07:55:00.699Z,18.31
2019-02-24T07:57:29.818Z,18.79
2019-02-24T07:59:58.923Z,19.25
2019-02-24T08:02:27.987Z,19.76
2019-02-24T08:04:57.075Z,20.23
2019-02-24T08:07:26.180Z,20.74
2019-02-24T08:09:55.314Z,21.20
2019-02-24T08:12:24.384Z,21.65
2019-02-24T08:14:53.549Z,22.14
2019-02-24T08:17:22.620Z,22.62
2019-02-24T08:19:52.020Z,23.09
2019-02-24T08:22:21.133Z,23.60
2019-02-24T08:24:50.243Z,24.15
2019-02-24T08:27:19.369Z,24.62
2019-02-24T08:29:48.548Z,25.10
2019-02-24T08:32:17.674Z,25.35
2019-02-24T08:34:46.842Z,25.76
2019-02-24T08:37:15.938Z,26.29
2019-02-24T08:39:45.124Z,26.86
2019-02-24T08:42:14.204Z,27.41
2019-02-24T08:44:43.312Z,27.85
2019-02-24T08:47:12.413Z,28.32
2019-02-24T08:49:41.533Z,28.86
2019-02-24T08:52:10.641Z,29.34
2019-02-24T08:54:39.705Z,29.70
2019-02-24T08:57:08.831Z,30.35
2019-02-24T08:59:38.398Z,30.35
2019-02-24T09:02:07.602Z,30.68
2019-02-24T09:04:36.722Z,31.08
2019-02-24T09:07:05.921Z,31.52
2019-02-24T09:09:35.010Z,32.03
2019-02-24T09:12:04.114Z,32.48
2019-02-24T09:14:33.179Z,32.79
2019-02-24T09:17:02.349Z,33.18
2019-02-24T09:19:31.457Z,33.58
2019-02-24T09:22:00.641Z,33.93
2019-02-24T09:24:30.127Z,34.25
2019-02-24T09:26:59.485Z,34.46
2019-02-24T09:29:28.841Z,34.88
2019-02-24T09:31:58.000Z,35.27
2019-02-24T09:34:27.074Z,35.63
2019-02-24T09:36:56.514Z,35.97
2019-02-24T09:39:25.881Z,36.28
2019-02-24T09:41:54.986Z,36.51
2019-02-24T09:44:24.039Z,36.78
2019-02-24T09:46:53.134Z,37.23
2019-02-24T09:49:22.178Z,37.59
2019-02-24T09:51:52.365Z,37.91
2019-02-24T09:54:21.526Z,38.41
2019-02-24T09:56:50.675Z,38.78
2019-02-24T09:59:19.759Z,39.03
2019-02-24T10:01:48.906Z,39.17
2019-02-24T10:04:17.939Z,39.48
2019-02-24T10:06:47.067Z,39.75
2019-02-24T10:09:16.117Z,40.05
2019-02-24T10:11:46.924Z,40.41
2019-02-24T10:14:16.041Z,40.78
2019-02-24T10:16:45.179Z,41.16
2019-02-24T10:19:14.248Z,41.44
2019-02-24T10:21:43.424Z,41.63
2019-02-24T10:24:12.548Z,41.96
2019-02-24T10:26:41.630Z,42.26
2019-02-24T10:29:10.697Z,42.62
2019-02-24T10:31:39.822Z,43.03
2019-02-24T10:34:09.517Z,43.33
2019-02-24T10:36:38.625Z,43.59
2019-02-24T10:39:10.375Z,43.84
2019-02-24T10:41:39.473Z,44.05
2019-02-24T10:44:08.551Z,44.36
2019-02-24T10:46:37.772Z,44.61
2019-02-24T10:49:06.882Z,44.99
2019-02-24T10:51:35.958Z,45.19
2019-02-24T10:54:05.033Z,45.33
2019-02-24T10:56:34.110Z,45.38
2019-02-24T10:59:03.250Z,45.42
2019-02-24T11:01:32.331Z,45.80
2019-02-24T11:04:01.448Z,45.78
2019-02-24T11:06:30.553Z,45.86
2019-02-24T11:08:59.667Z,46.16
2019-02-24T11:11:28.789Z,45.80
2019-02-24T11:13:57.928Z,45.80
2019-02-24T11:16:27.056Z,45.52
2019-02-24T11:18:56.175Z,45.61
2019-02-24T11:21:25.370Z,45.48
2019-02-24T11:23:54.495Z,45.10
2019-02-24T11:26:23.660Z,45.29
2019-02-24T11:28:52.896Z,45.23
2019-02-24T11:31:22.059Z,45.22
2019-02-24T11:33:51.192Z,45.54
2019-02-24T11:36:20.318Z,45.74
2019-02-24T11:38:49.552Z,46.21
2019-02-24T11:41:18.763Z,46.30
2019-02-24T11:43:48.047Z,45.88
2019-02-24T11:46:17.236Z,45.76
2019-02-24T11:48:46.477Z,45.92
2019-02-24T11:51:15.703Z,46.53
2019-02-24T11:53:44.935Z,47.24
2019-02-24T11:56:14.058Z,47.92
2019-02-24T11:58:43.229Z,48.40
2019-02-24T12:01:12.453Z,48.16
2019-02-24T12:03:41.628Z,48.18
2019-02-24T12:06:10.892Z,48.28
2019-02-24T12:08:40.058Z,48.63
2019-02-24T12:11:09.167Z,48.87
2019-02-24T12:13:38.475Z,49.02
2019-02-24T12:16:07.633Z,49.15
2019-02-24T12:18:36.824Z,48.94
2019-02-24T12:21:05.965Z,48.53
2019-02-24T12:23:35.195Z,47.82
2019-02-24T12:26:04.292Z,47.60
2019-02-24T12:28:33.919Z,47.78
2019-02-24T12:31:03.321Z,48.34
2019-02-24T12:33:32.465Z,48.43
2019-02-24T12:36:01.669Z,47.62
2019-02-24T12:38:30.855Z,45.92
2019-02-24T12:41:00.005Z,44.83
2019-02-24T12:43:29.141Z,44.24
2019-02-24T12:45:58.341Z,42.81
2019-02-24T12:48:27.560Z,41.16
2019-02-24T12:50:56.680Z,39.17
2019-02-24T12:53:27.526Z,37.39
2019-02-24T12:55:56.821Z,35.75
2019-02-24T12:58:26.091Z,34.31
2019-02-24T13:00:55.288Z,33.04
2019-02-24T13:03:24.484Z,31.94
2019-02-24T13:05:53.694Z,31.10
2019-02-24T13:08:22.890Z,30.48
2019-02-24T13:10:52.017Z,29.95
2019-02-24T13:13:21.107Z,29.47
2019-02-24T13:15:50.282Z,28.95
2019-02-24T13:18:19.538Z,28.39
2019-02-24T13:20:48.603Z,28.00
2019-02-24T13:23:17.895Z,27.70
2019-02-24T13:25:47.080Z,27.45
2019-02-24T13:28:16.221Z,27.12
2019-02-24T13:30:45.354Z,26.76
2019-02-24T13:33:14.480Z,26.45
2019-02-24T13:35:43.640Z,26.10
2019-02-24T13:38:12.762Z,25.71
2019-02-24T13:40:42.001Z,25.49
2019-02-24T13:43:11.069Z,25.35
2019-02-24T13:45:40.173Z,25.27
2019-02-24T13:48:09.853Z,25.20
2019-02-24T13:50:39.027Z,25.08
2019-02-24T13:53:08.148Z,24.93
2019-02-24T13:55:37.246Z,24.78
2019-02-24T13:58:06.427Z,24.72
2019-02-24T14:00:35.525Z,24.68
2019-02-24T14:03:04.625Z,24.69
2019-02-24T14:05:33.709Z,24.59
2019-02-24T14:08:02.888Z,24.44
2019-02-24T14:10:31.922Z,24.33
2019-02-24T14:13:01.035Z,24.22
2019-02-24T14:15:30.121Z,24.17
2019-02-24T14:17:59.241Z,24.11
2019-02-24T14:20:28.344Z,24.11
2019-02-24T14:22:57.495Z,24.11
2019-02-24T14:25:26.618Z,24.11
2019-02-24T14:27:55.755Z,24.12
2019-02-24T14:30:24.883Z,24.15
2019-02-24T14:32:53.965Z,24.17
2019-02-24T14:35:23.294Z,23.77
2019-02-24T14:37:52.480Z,23.36
2019-02-24T14:40:21.650Z,24.11
2019-02-24T14:42:50.862Z,24.10
2019-02-24T14:45:20.074Z,24.06
2019-02-24T14:47:49.231Z,24.05
2019-02-24T14:50:18.358Z,23.99
2019-02-24T14:52:47.566Z,23.93
2019-02-24T14:55:16.723Z,23.83
2019-02-24T14:57:45.845Z,23.77
2019-02-24T15:00:15.370Z,23.72
2019-02-24T15:02:44.538Z,23.64
2019-02-24T15:05:13.907Z,23.56
2019-02-24T15:07:42.989Z,23.52
2019-02-24T15:10:13.686Z,23.49
2019-02-24T15:12:42.897Z,23.44
2019-02-24T15:15:15.909Z,23.46
2019-02-24T15:17:45.059Z,23.43
2019-02-24T15:20:16.524Z,23.36
2019-02-24T15:22:45.619Z,23.30
2019-02-24T15:25:15.750Z,23.26
2019-02-24T15:27:44.912Z,23.21
2019-02-24T15:30:19.946Z,23.17
2019-02-24T15:32:51.625Z,23.11
2019-02-24T15:35:19.991Z,23.07
2019-02-24T15:37:49.109Z,22.98
2019-02-24T15:40:18.346Z,22.86
2019-02-24T15:42:47.538Z,22.78
2019-02-24T15:45:16.663Z,22.68
2019-02-24T15:47:45.828Z,22.63
2019-02-24T15:50:14.957Z,22.56
2019-02-24T15:52:44.138Z,22.48
2019-02-24T15:55:13.371Z,22.40
2019-02-24T15:57:42.535Z,22.33
2019-02-24T16:00:13.071Z,22.25
2019-02-24T16:02:42.244Z,22.18
2019-02-24T16:05:11.478Z,22.11
2019-02-24T16:07:40.564Z,22.04
2019-02-24T16:10:12.030Z,21.98
2019-02-24T16:12:41.207Z,21.94
2019-02-24T16:15:11.759Z,21.87
2019-02-24T16:17:40.905Z,21.77
2019-02-24T16:20:13.442Z,21.70
2019-02-24T16:22:42.504Z,21.63
2019-02-24T16:25:11.651Z,21.48
2019-02-24T16:27:40.915Z,21.36
2019-02-24T16:30:11.336Z,21.27
2019-02-24T16:32:40.480Z,21.17
2019-02-24T16:35:11.090Z,21.05
2019-02-24T16:37:40.256Z,20.96
2019-02-24T16:40:12.227Z,20.86
2019-02-24T16:42:42.548Z,20.74
2019-02-24T16:45:12.226Z,20.61
2019-02-24T16:47:41.344Z,20.50
2019-02-24T16:50:13.961Z,20.40
2019-02-24T16:52:43.125Z,20.30
2019-02-24T16:55:12.819Z,20.06
2019-02-24T16:57:42.142Z,20.07
2019-02-24T17:00:14.990Z,19.97
2019-02-24T17:02:44.247Z,19.84
2019-02-24T17:05:13.391Z,19.71
2019-02-24T17:07:42.545Z,19.54
2019-02-24T17:10:13.130Z,19.40
2019-02-24T17:12:42.288Z,19.27
2019-02-24T17:15:11.528Z,19.17
2019-02-24T17:17:40.694Z,19.04
2019-02-24T17:20:13.579Z,18.90
2019-02-24T17:22:42.888Z,18.80
2019-02-24T17:25:12.143Z,18.68
2019-02-24T17:27:41.302Z,18.55
2019-02-24T17:30:12.517Z,18.40
2019-02-24T17:32:41.753Z,18.30
2019-02-24T17:35:10.876Z,18.21
2019-02-24T17:37:39.981Z,18.15
2019-02-24T17:40:10.678Z,18.04
2019-02-24T17:42:40.626Z,17.91
2019-02-24T17:45:11.072Z,17.80
2019-02-24T17:47:40.184Z,17.73
2019-02-24T17:50:10.817Z,17.65
2019-02-24T17:52:39.982Z,17.58
2019-02-24T17:55:10.362Z,17.53
2019-02-24T17:57:39.602Z,17.45
2019-02-24T18:00:13.000Z,17.40
2019-02-24T18:02:42.215Z,17.33
2019-02-24T18:05:11.407Z,17.27
2019-02-24T18:07:40.491Z,17.21
2019-02-24T18:10:09.595Z,17.15
2019-02-24T18:12:38.711Z,17.08
2019-02-24T18:15:09.422Z,17.00
2019-02-24T18:17:38.595Z,16.96
2019-02-24T18:20:09.144Z,16.88
2019-02-24T18:22:38.221Z,16.83
2019-02-24T18:25:09.250Z,16.77
2019-02-24T18:27:38.359Z,16.72
2019-02-24T18:30:10.712Z,16.65
2019-02-24T18:32:39.816Z,16.58
2019-02-24T18:35:08.927Z,16.51
2019-02-24T18:37:38.069Z,16.44
2019-02-24T18:40:07.636Z,16.39
2019-02-24T18:42:36.819Z,16.33
2019-02-24T18:45:06.006Z,16.26
2019-02-24T18:47:35.190Z,16.22
2019-02-24T18:50:04.386Z,16.17
2019-02-24T18:52:33.531Z,16.11
2019-02-24T18:55:02.601Z,16.07
2019-02-24T18:57:31.811Z,16.02
2019-02-24T19:00:00.965Z,15.98
2019-02-24T19:02:30.078Z,15.90
2019-02-24T19:04:59.228Z,15.86
2019-02-24T19:07:28.373Z,15.82
2019-02-24T19:09:57.483Z,15.79
2019-02-24T19:12:26.679Z,15.76
2019-02-24T19:14:55.766Z,15.70
2019-02-24T19:17:24.909Z,15.62
2019-02-24T19:19:54.000Z,15.57
2019-02-24T19:22:23.177Z,15.53
2019-02-24T19:24:52.298Z,15.53
2019-02-24T19:27:21.444Z,15.50
2019-02-24T19:29:50.583Z,15.50
2019-02-24T19:32:19.718Z,15.46
2019-02-24T19:34:48.817Z,15.41
2019-02-24T19:37:17.983Z,15.35
2019-02-24T19:39:47.132Z,15.29
2019-02-24T19:42:16.271Z,15.23
2019-02-24T19:44:45.422Z,15.19
2019-02-24T19:47:14.547Z,15.14
2019-02-24T19:49:43.638Z,15.11
2019-02-24T19:52:12.791Z,15.07
2019-02-24T19:54:41.983Z,15.03
2019-02-24T19:57:11.129Z,14.98
2019-02-24T19:59:40.306Z,14.91
2019-02-24T20:02:09.442Z,14.88
2019-02-24T20:04:38.614Z,14.82
2019-02-24T20:07:07.681Z,14.78
2019-02-24T20:09:43.665Z,14.72
2019-02-24T20:12:12.796Z,14.68
2019-02-24T20:14:43.685Z,14.63
2019-02-24T20:17:12.798Z,14.61
2019-02-24T20:19:42.032Z,14.54
2019-02-24T20:22:11.088Z,14.51
2019-02-24T20:24:40.201Z,14.49
2019-02-24T20:27:09.301Z,14.47
2019-02-24T20:29:38.406Z,14.43
2019-02-24T20:32:07.487Z,14.39
2019-02-24T20:34:36.577Z,14.21
2019-02-24T20:37:05.709Z,14.34
2019-02-24T20:39:34.776Z,14.28
2019-02-24T20:42:03.872Z,14.22
2019-02-24T20:44:33.065Z,14.18
2019-02-24T20:47:02.139Z,14.12
2019-02-24T20:49:31.313Z,14.07
2019-02-24T20:52:00.396Z,14.03
2019-02-24T20:54:29.551Z,13.99
2019-02-24T20:56:58.654Z,13.91
2019-02-24T20:59:27.860Z,13.87
2019-02-24T21:01:56.954Z,13.83
2019-02-24T21:04:26.075Z,13.79
2019-02-24T21:06:55.143Z,13.74
2019-02-24T21:09:24.243Z,13.63
2019-02-24T21:11:53.359Z,13.53
2019-02-24T21:14:22.484Z,13.47
2019-02-24T21:16:51.594Z,13.41
2019-02-24T21:19:20.663Z,13.40
2019-02-24T21:21:49.788Z,13.37
2019-02-24T21:24:18.874Z,13.34
2019-02-24T21:26:47.955Z,13.32
2019-02-24T21:29:17.083Z,13.30
2019-02-24T21:31:46.132Z,13.25
2019-02-24T21:34:15.297Z,13.18
2019-02-24T21:36:44.376Z,13.09
2019-02-24T21:39:13.450Z,13.02
2019-02-24T21:41:42.486Z,12.97
2019-02-24T21:44:11.634Z,12.96
2019-02-24T21:46:40.678Z,12.94
2019-02-24T21:49:09.775Z,12.91
2019-02-24T21:51:38.827Z,12.90
2019-02-24T21:54:07.903Z,12.88
2019-02-24T21:56:37.014Z,12.87
2019-02-24T21:59:06.118Z,12.85
2019-02-24T22:01:35.182Z,12.81
2019-02-24T22:04:04.294Z,12.79
2019-02-24T22:06:33.353Z,12.75
2019-02-24T22:09:02.494Z,12.68
2019-02-24T22:11:31.558Z,12.66
2019-02-24T22:14:00.664Z,12.59
2019-02-24T22:16:29.732Z,12.57
2019-02-24T22:18:58.813Z,12.48
2019-02-24T22:21:27.911Z,12.44
2019-02-24T22:23:56.959Z,12.08
2019-02-24T22:26:26.023Z,12.29
2019-02-24T22:28:55.074Z,12.28
2019-02-24T22:31:24.187Z,12.19
2019-02-24T22:33:53.243Z,12.14
2019-02-24T22:36:22.315Z,12.10
2019-02-24T22:38:51.411Z,12.06
2019-02-24T22:41:20.529Z,12.02
2019-02-24T22:43:49.563Z,11.95
2019-02-24T22:46:18.646Z,11.93
2019-02-24T22:48:47.698Z,11.92
2019-02-24T22:51:17.628Z,11.93
2019-02-24T22:53:46.713Z,11.85
2019-02-24T22:56:15.819Z,11.79
2019-02-24T22:58:44.859Z,11.75
2019-02-24T23:01:19.892Z,11.71
2019-02-24T23:03:49.277Z,11.68
2019-02-24T23:06:18.393Z,11.65
2019-02-24T23:08:47.478Z,11.60
2019-02-24T23:11:16.746Z,11.60
2019-02-24T23:13:45.925Z,11.57
2019-02-24T23:16:14.958Z,11.55
2019-02-24T23:18:44.048Z,11.53
2019-02-24T23:21:13.215Z,11.52
2019-02-24T23:23:42.437Z,11.50
2019-02-24T23:26:11.682Z,11.48
2019-02-24T23:28:40.910Z,11.48
2019-02-24T23:31:10.089Z,11.48
2019-02-24T23:33:39.266Z,11.49
2019-02-24T23:36:08.544Z,11.47
2019-02-24T23:38:37.799Z,11.46
2019-02-24T23:41:07.149Z,11.42
2019-02-24T23:43:36.486Z,11.32
2019-02-24T23:46:05.717Z,11.27
2019-02-24T23:48:34.925Z,11.23
2019-02-24T23:51:04.124Z,11.21
2019-02-24T23:53:33.347Z,11.15
2019-02-24T23:56:02.596Z,11.12
2019-02-24T23:58:31.875Z,11.11
